Time;durP1;ratioP1;P1;durP2;ratioP2;P2;SDS_P1;SDS_P2;PMS_P1;PMS_P2;Temp;Humidity;BMP_temperature;BMP_pressure;BME280_temperature;BME280_humidity;BME280_pressure;Samples;Min_cycle;Max_cycle;Signal;HPM_P1;HPM_P2
2021/09/23 00:01:43;;;;;;;35.53;22.80;;;13.80;99.90;;;;;;5046045;28;25133;-70
2021/09/23 00:06:43;;;;;;;37.92;23.02;;;13.60;99.90;;;;;;5047796;28;25132;-69
2021/09/23 00:09:09;;;;;;;31.55;23.20;;;13.50;99.90;;;;;;5034948;28;25154;-70
2021/09/23 00:11:35;;;;;;;35.70;22.52;;;13.50;99.90;;;;;;5042818;28;25062;-70
2021/09/23 00:14:02;;;;;;;28.33;21.27;;;13.50;99.90;;;;;;5048107;28;25087;-69
2021/09/23 00:16:28;;;;;;;30.83;20.58;;;13.40;99.90;;;;;;5037180;28;25063;-70
2021/09/23 00:18:54;;;;;;;28.42;20.58;;;13.40;99.90;;;;;;5042021;28;25060;-69
2021/09/23 00:21:19;;;;;;;32.42;20.60;;;13.50;99.90;;;;;;5049923;28;25066;-68
2021/09/23 00:23:45;;;;;;;28.80;19.08;;;13.60;99.90;;;;;;5030779;28;25055;-68
2021/09/23 00:26:12;;;;;;;31.48;19.20;;;13.60;99.90;;;;;;5037134;28;25095;-71
2021/09/23 00:28:38;;;;;;;31.90;20.83;;;13.70;99.90;;;;;;5031594;28;25073;-70
2021/09/23 00:31:04;;;;;;;27.40;18.38;;;13.70;99.90;;;;;;5047220;28;25058;-71
2021/09/23 00:33:30;;;;;;;28.13;18.50;;;13.80;99.90;;;;;;5032503;28;25163;-68
2021/09/23 00:35:55;;;;;;;28.15;19.05;;;13.90;99.90;;;;;;5045816;28;25138;-69
2021/09/23 00:38:21;;;;;;;24.33;18.48;;;13.90;99.90;;;;;;5037349;28;25082;-68
2021/09/23 00:40:47;;;;;;;33.10;19.40;;;14.00;99.90;;;;;;5035747;28;25063;-70
2021/09/23 00:43:12;;;;;;;32.67;20.92;;;14.00;99.90;;;;;;5038363;28;25059;-70
2021/09/23 00:45:38;;;;;;;29.67;19.45;;;14.00;99.90;;;;;;5013203;28;25134;-69
2021/09/23 00:48:04;;;;;;;24.98;18.50;;;14.00;99.90;;;;;;5031095;28;25070;-69
2021/09/23 00:50:29;;;;;;;29.17;18.25;;;14.10;99.90;;;;;;5039215;28;25096;-69
2021/09/23 00:52:55;;;;;;;32.08;18.58;;;14.20;99.90;;;;;;5033329;28;25057;-69
2021/09/23 00:55:22;;;;;;;31.73;19.65;;;14.20;99.90;;;;;;5039049;28;25062;-69
2021/09/23 00:57:48;;;;;;;29.55;19.38;;;14.20;99.90;;;;;;5038939;28;25081;-69
2021/09/23 01:00:15;;;;;;;28.33;19.02;;;14.30;99.90;;;;;;5054297;28;25076;-70
2021/09/23 01:02:41;;;;;;;30.00;18.08;;;14.30;99.90;;;;;;5044232;28;25123;-69
2021/09/23 01:05:08;;;;;;;24.52;18.20;;;14.30;99.90;;;;;;5056207;28;25160;-68
2021/09/23 01:07:34;;;;;;;29.83;18.85;;;14.40;99.90;;;;;;5041374;28;25072;-71
2021/09/23 01:10:02;;;;;;;28.65;20.00;;;14.40;99.90;;;;;;5021765;28;25061;-69
2021/09/23 01:12:28;;;;;;;33.83;20.13;;;14.30;99.90;;;;;;5018587;28;25049;-69
2021/09/23 01:14:54;;;;;;;28.52;20.92;;;14.30;99.90;;;;;;5039949;28;25072;-68
2021/09/23 01:17:20;;;;;;;32.10;21.42;;;14.30;99.90;;;;;;5041725;28;25064;-70
2021/09/23 01:19:46;;;;;;;28.73;21.63;;;14.30;99.90;;;;;;5033681;28;25107;-69
2021/09/23 01:22:13;;;;;;;37.58;23.35;;;14.20;99.90;;;;;;5033402;28;25163;-70
2021/09/23 01:24:40;;;;;;;36.05;21.73;;;14.30;99.90;;;;;;5031439;28;25108;-70
2021/09/23 01:27:07;;;;;;;36.72;23.23;;;14.30;99.90;;;;;;5038789;28;25109;-71
2021/09/23 01:29:34;;;;;;;34.90;22.75;;;14.40;99.90;;;;;;5033563;28;25134;-68
2021/09/23 01:32:05;;;;;;;29.73;22.58;;;14.30;99.90;;;;;;5032944;28;25112;-70
2021/09/23 01:34:32;;;;;;;39.83;23.80;;;14.30;99.90;;;;;;5042154;28;25160;-69
2021/09/23 01:36:57;;;;;;;32.95;22.85;;;14.20;99.90;;;;;;5036232;28;25100;-70
2021/09/23 01:39:25;;;;;;;33.97;23.45;;;14.20;99.90;;;;;;5033449;28;25099;-70
2021/09/23 01:41:52;;;;;;;40.00;24.80;;;14.10;99.90;;;;;;5041613;28;25162;-68
2021/09/23 01:44:17;;;;;;;38.67;25.15;;;14.20;99.90;;;;;;5026339;28;25071;-71
2021/09/23 01:46:44;;;;;;;38.13;24.40;;;14.10;99.90;;;;;;5040101;28;25066;-72
2021/09/23 01:49:09;;;;;;;37.30;24.55;;;14.00;99.90;;;;;;5041951;28;25064;-70
2021/09/23 01:51:35;;;;;;;40.80;26.63;;;14.00;99.90;;;;;;5047340;28;25109;-72
2021/09/23 01:54:01;;;;;;;41.95;25.60;;;14.00;99.90;;;;;;5034876;28;25066;-68
2021/09/23 01:56:27;;;;;;;40.47;27.10;;;14.00;99.90;;;;;;5034847;28;25155;-69
2021/09/23 01:58:52;;;;;;;36.85;25.67;;;13.90;99.90;;;;;;5038704;28;25082;-73
2021/09/23 02:01:18;;;;;;;38.78;26.25;;;13.90;99.90;;;;;;5032290;28;25064;-69
2021/09/23 02:03:44;;;;;;;34.63;24.77;;;13.90;99.90;;;;;;5037653;28;25085;-70
2021/09/23 02:06:09;;;;;;;41.15;26.13;;;13.90;99.90;;;;;;5033493;28;25073;-68
2021/09/23 02:08:35;;;;;;;38.67;25.73;;;13.80;99.90;;;;;;5040294;28;25106;-69
2021/09/23 02:11:00;;;;;;;39.72;26.05;;;13.70;99.90;;;;;;5030671;28;25071;-71
2021/09/23 02:13:26;;;;;;;32.75;23.55;;;13.70;99.90;;;;;;5035205;28;25106;-69
2021/09/23 02:15:52;;;;;;;39.17;25.25;;;13.70;99.90;;;;;;5032597;28;24959;-69
2021/09/23 02:18:17;;;;;;;34.95;23.70;;;13.70;99.90;;;;;;5034745;28;25078;-70
2021/09/23 02:20:43;;;;;;;39.40;25.15;;;13.80;99.90;;;;;;5044669;28;25092;-70
2021/09/23 02:23:09;;;;;;;43.95;26.52;;;13.90;99.90;;;;;;5040522;28;25085;-72
2021/09/23 02:25:41;;;;;;;38.15;24.52;;;13.80;99.90;;;;;;5061516;28;25080;-72
2021/09/23 02:28:07;;;;;;;42.10;27.15;;;13.80;99.90;;;;;;5055498;28;25077;-70
2021/09/23 02:30:32;;;;;;;41.85;24.88;;;13.80;99.90;;;;;;5034514;28;25056;-71
2021/09/23 02:32:58;;;;;;;39.10;27.48;;;13.80;99.90;;;;;;5039635;28;25080;-69
2021/09/23 02:35:24;;;;;;;39.20;27.27;;;13.90;99.90;;;;;;5036763;28;25060;-69
2021/09/23 02:37:49;;;;;;;40.78;26.90;;;13.80;99.90;;;;;;5040886;28;25162;-69
2021/09/23 02:40:15;;;;;;;41.28;28.05;;;13.80;99.90;;;;;;5044513;28;25072;-70
2021/09/23 02:42:42;;;;;;;43.03;28.77;;;13.70;99.90;;;;;;5032198;28;25177;-68
2021/09/23 02:45:09;;;;;;;40.95;28.15;;;13.80;99.90;;;;;;5036961;28;25073;-70
2021/09/23 02:47:35;;;;;;;42.38;29.52;;;13.80;99.90;;;;;;5012101;28;25086;-69
2021/09/23 02:50:01;;;;;;;43.80;29.50;;;13.90;99.90;;;;;;5043421;28;25052;-69
2021/09/23 02:52:26;;;;;;;45.28;30.42;;;13.90;99.90;;;;;;5030146;28;25075;-70
2021/09/23 02:54:52;;;;;;;42.17;30.30;;;13.90;99.90;;;;;;5029892;28;25121;-68
2021/09/23 02:57:18;;;;;;;45.42;31.77;;;13.90;99.90;;;;;;5043715;28;25072;-70
2021/09/23 02:59:43;;;;;;;44.63;32.83;;;13.90;99.90;;;;;;5048265;28;25130;-69
2021/09/23 03:02:09;;;;;;;42.92;32.78;;;13.90;99.90;;;;;;5038842;28;25075;-70
2021/09/23 03:04:35;;;;;;;46.42;33.47;;;13.90;99.90;;;;;;5036599;28;25179;-69
2021/09/23 03:07:01;;;;;;;51.55;33.42;;;14.00;99.90;;;;;;5035740;28;25144;-71
2021/09/23 03:09:26;;;;;;;47.13;34.05;;;14.00;99.90;;;;;;5040459;28;25060;-68
2021/09/23 03:11:52;;;;;;;46.78;32.63;;;14.00;99.90;;;;;;5015815;28;25053;-69
2021/09/23 03:14:18;;;;;;;45.65;33.35;;;14.00;99.90;;;;;;5024238;28;25150;-70
2021/09/23 03:16:43;;;;;;;49.20;34.47;;;14.00;99.90;;;;;;5017050;28;25078;-70
2021/09/23 03:19:09;;;;;;;54.47;35.40;;;14.00;99.90;;;;;;5039863;28;25062;-68
2021/09/23 03:21:36;;;;;;;48.40;34.47;;;14.00;99.90;;;;;;5042840;28;25136;-70
2021/09/23 03:24:02;;;;;;;48.47;35.78;;;14.00;99.90;;;;;;5029874;28;25072;-69
2021/09/23 03:26:28;;;;;;;49.17;36.95;;;14.00;99.90;;;;;;5029825;28;25057;-68
2021/09/23 03:28:53;;;;;;;54.70;36.30;;;14.00;99.90;;;;;;5035736;28;25126;-70
2021/09/23 03:31:19;;;;;;;58.35;37.97;;;14.00;99.90;;;;;;5046798;28;25098;-68
2021/09/23 03:33:45;;;;;;;49.17;36.50;;;13.90;99.90;;;;;;5036352;28;25075;-72
2021/09/23 03:36:10;;;;;;;49.22;34.28;;;13.90;99.90;;;;;;5033740;28;25097;-69
2021/09/23 03:38:36;;;;;;;47.55;35.80;;;13.90;99.90;;;;;;5040973;28;25082;-69
2021/09/23 03:41:01;;;;;;;51.67;37.20;;;14.00;99.90;;;;;;5031912;28;25078;-68
2021/09/23 03:43:27;;;;;;;55.47;37.63;;;14.00;99.90;;;;;;5039191;28;25127;-70
2021/09/23 03:45:56;;;;;;;55.30;37.90;;;14.00;99.90;;;;;;5016785;28;25146;-69
2021/09/23 03:48:22;;;;;;;55.97;40.08;;;14.00;99.90;;;;;;5040236;28;25070;-69
2021/09/23 03:50:48;;;;;;;51.85;36.70;;;14.00;99.90;;;;;;5030713;28;25080;-70
2021/09/23 03:53:14;;;;;;;48.47;36.50;;;14.00;99.90;;;;;;5035377;28;25049;-70
2021/09/23 03:55:39;;;;;;;53.58;38.25;;;14.00;99.90;;;;;;5033415;28;25061;-71
2021/09/23 03:58:05;;;;;;;53.22;39.20;;;14.00;99.90;;;;;;5031409;28;25099;-68
2021/09/23 04:00:31;;;;;;;51.53;37.60;;;13.90;99.90;;;;;;5031608;28;25053;-69
2021/09/23 04:02:56;;;;;;;57.13;39.63;;;13.80;99.90;;;;;;5019536;28;25127;-69
2021/09/23 04:05:22;;;;;;;51.95;38.55;;;13.90;99.90;;;;;;5038137;28;25069;-69
2021/09/23 04:07:48;;;;;;;55.78;38.17;;;13.80;99.90;;;;;;5035428;28;25060;-69
2021/09/23 04:10:14;;;;;;;59.78;41.45;;;13.80;99.90;;;;;;5037403;28;25118;-69
2021/09/23 04:12:40;;;;;;;53.63;39.33;;;13.80;99.90;;;;;;5035355;28;25092;-69
2021/09/23 04:15:06;;;;;;;58.25;39.78;;;13.90;99.90;;;;;;5045105;28;25135;-68
2021/09/23 04:17:33;;;;;;;53.35;39.60;;;13.90;99.90;;;;;;5038359;28;25155;-68
2021/09/23 04:19:59;;;;;;;56.35;38.83;;;13.90;99.90;;;;;;5045756;28;25117;-68
2021/09/23 04:22:24;;;;;;;60.90;41.47;;;14.00;99.90;;;;;;5043811;28;25139;-68
2021/09/23 04:24:50;;;;;;;57.38;40.08;;;13.90;99.90;;;;;;5041481;28;25049;-69
2021/09/23 04:27:16;;;;;;;55.97;39.08;;;13.90;99.90;;;;;;5049251;28;25099;-68
2021/09/23 04:29:43;;;;;;;68.38;41.80;;;13.90;99.90;;;;;;5045299;28;25078;-69
2021/09/23 04:32:10;;;;;;;55.45;40.55;;;13.90;99.90;;;;;;5041137;28;25124;-68
2021/09/23 04:34:36;;;;;;;65.63;42.05;;;13.80;99.90;;;;;;5031123;28;25080;-68
2021/09/23 04:37:02;;;;;;;50.33;39.10;;;13.80;99.90;;;;;;5041654;28;25153;-69
2021/09/23 04:39:27;;;;;;;60.33;42.35;;;13.80;99.90;;;;;;5042010;28;25115;-68
2021/09/23 04:41:53;;;;;;;54.45;40.95;;;13.80;99.90;;;;;;5051583;28;25132;-68
2021/09/23 04:44:19;;;;;;;58.47;42.42;;;13.90;99.90;;;;;;5038528;28;25087;-69
2021/09/23 04:46:44;;;;;;;60.63;42.85;;;13.90;99.90;;;;;;5026155;28;25147;-68
2021/09/23 04:49:10;;;;;;;61.42;44.10;;;13.90;99.90;;;;;;5035531;28;25083;-67
2021/09/23 04:51:35;;;;;;;64.60;44.75;;;13.80;99.90;;;;;;5014868;28;25101;-68
2021/09/23 04:54:03;;;;;;;65.85;42.55;;;13.70;99.90;;;;;;5032026;28;25165;-68
2021/09/23 04:56:29;;;;;;;57.55;42.00;;;13.80;99.90;;;;;;5029335;28;25077;-68
2021/09/23 04:58:55;;;;;;;54.95;41.78;;;13.80;99.90;;;;;;5032188;28;25068;-69
2021/09/23 05:01:21;;;;;;;61.05;44.38;;;13.80;99.90;;;;;;5038762;28;25049;-68
2021/09/23 05:03:47;;;;;;;67.60;47.28;;;13.70;99.90;;;;;;5044364;28;25077;-68
2021/09/23 05:06:12;;;;;;;68.97;48.15;;;13.70;99.90;;;;;;5035303;28;25068;-69
2021/09/23 05:08:38;;;;;;;64.80;47.13;;;13.70;99.90;;;;;;5034554;28;25066;-68
2021/09/23 05:11:04;;;;;;;76.00;50.72;;;13.70;99.90;;;;;;5040214;28;25066;-70
2021/09/23 05:13:29;;;;;;;71.30;50.10;;;13.70;99.90;;;;;;5039826;28;25054;-70
2021/09/23 05:15:55;;;;;;;75.68;50.22;;;13.70;99.90;;;;;;5026472;28;25066;-68
2021/09/23 05:18:21;;;;;;;74.53;50.47;;;13.60;99.90;;;;;;5044274;28;25074;-69
2021/09/23 05:20:46;;;;;;;78.32;51.65;;;13.60;99.90;;;;;;5040685;28;25088;-69
2021/09/23 05:23:12;;;;;;;78.22;52.17;;;13.60;99.90;;;;;;5032480;28;25100;-69
2021/09/23 05:25:38;;;;;;;84.78;53.38;;;13.60;99.90;;;;;;5038251;28;25100;-68
2021/09/23 05:28:04;;;;;;;78.28;50.60;;;13.50;99.90;;;;;;5036052;28;25137;-68
2021/09/23 05:30:29;;;;;;;79.50;54.70;;;13.60;99.90;;;;;;5036533;28;25061;-68
2021/09/23 05:32:55;;;;;;;82.80;55.08;;;13.60;99.90;;;;;;5036261;28;25067;-68
2021/09/23 05:35:21;;;;;;;83.00;56.88;;;13.60;99.90;;;;;;5036154;28;25055;-69
2021/09/23 05:37:47;;;;;;;97.15;61.47;;;13.60;99.90;;;;;;5025906;28;25106;-68
2021/09/23 05:40:13;;;;;;;86.03;56.17;;;13.60;99.90;;;;;;5032678;28;25120;-68
2021/09/23 05:42:39;;;;;;;92.88;58.97;;;13.70;99.90;;;;;;5034608;28;25072;-68
2021/09/23 05:45:10;;;;;;;97.18;61.58;;;13.70;99.90;;;;;;5034226;28;25071;-68
2021/09/23 05:47:37;;;;;;;100.65;62.92;;;13.70;99.90;;;;;;5034473;28;25065;-68
2021/09/23 05:50:03;;;;;;;96.63;60.20;;;13.80;99.90;;;;;;5037580;28;25051;-67
2021/09/23 05:52:29;;;;;;;95.50;62.05;;;13.80;99.90;;;;;;5034040;28;25053;-68
2021/09/23 05:54:54;;;;;;;95.45;60.50;;;13.80;99.90;;;;;;5034079;28;25137;-67
2021/09/23 05:57:24;;;;;;;103.18;63.22;;;13.80;99.90;;;;;;5039544;28;25095;-68
2021/09/23 05:59:50;;;;;;;94.32;62.20;;;13.80;99.90;;;;;;5036741;28;25072;-69
2021/09/23 06:02:16;;;;;;;97.63;63.22;;;13.80;99.90;;;;;;5035649;28;25063;-70
2021/09/23 06:04:42;;;;;;;91.82;59.42;;;13.90;99.90;;;;;;5043600;28;25075;-70
2021/09/23 06:07:08;;;;;;;94.95;61.58;;;13.90;99.90;;;;;;5027486;28;25053;-69
2021/09/23 06:09:33;;;;;;;100.90;66.22;;;14.00;99.90;;;;;;5030618;28;25060;-71
2021/09/23 06:11:59;;;;;;;99.30;63.70;;;14.00;99.90;;;;;;5033353;28;25059;-70
2021/09/23 06:14:24;;;;;;;105.63;62.85;;;14.00;99.90;;;;;;5034450;28;25073;-70
2021/09/23 06:16:50;;;;;;;94.40;62.30;;;14.10;99.90;;;;;;5039900;28;25142;-69
2021/09/23 06:19:16;;;;;;;98.35;62.70;;;14.10;99.90;;;;;;5039989;28;25066;-70
2021/09/23 06:21:41;;;;;;;90.05;60.33;;;14.10;99.90;;;;;;5031463;28;25095;-69
2021/09/23 06:24:07;;;;;;;99.40;60.80;;;14.20;99.90;;;;;;5035483;28;25096;-70
2021/09/23 06:26:33;;;;;;;91.57;59.72;;;14.30;99.90;;;;;;5053067;28;25053;-69
2021/09/23 06:28:59;;;;;;;92.55;59.38;;;14.30;99.90;;;;;;5059143;28;25125;-70
2021/09/23 06:31:25;;;;;;;94.82;59.42;;;14.30;99.90;;;;;;5056268;28;25076;-70
2021/09/23 06:33:51;;;;;;;84.75;55.72;;;14.30;99.90;;;;;;5057284;28;25129;-70
2021/09/23 06:36:16;;;;;;;93.40;58.65;;;14.40;99.90;;;;;;5043129;28;25102;-69
2021/09/23 06:38:42;;;;;;;88.10;58.83;;;14.40;99.90;;;;;;5031386;28;25052;-70
2021/09/23 06:41:11;;;;;;;77.25;54.63;;;14.50;99.90;;;;;;5036068;28;25072;-70
2021/09/23 06:43:38;;;;;;;87.40;56.78;;;14.50;99.90;;;;;;5015958;28;25091;-70
2021/09/23 06:46:04;;;;;;;90.03;59.25;;;14.60;99.90;;;;;;5033659;28;25105;-70
2021/09/23 06:48:29;;;;;;;90.65;59.00;;;14.60;99.90;;;;;;5035797;28;25084;-68
2021/09/23 06:50:55;;;;;;;82.63;55.75;;;14.60;99.90;;;;;;5035813;28;25049;-69
2021/09/23 06:53:21;;;;;;;78.13;52.95;;;14.70;99.90;;;;;;5038496;28;25073;-70
2021/09/23 06:55:47;;;;;;;86.28;57.28;;;14.70;99.90;;;;;;5036098;28;25083;-69
2021/09/23 06:58:12;;;;;;;86.18;55.88;;;14.70;99.90;;;;;;5033773;28;25060;-69
2021/09/23 07:00:38;;;;;;;88.70;57.08;;;14.80;99.90;;;;;;5042749;28;24854;-70
2021/09/23 07:03:03;;;;;;;90.07;57.90;;;14.70;99.90;;;;;;5042492;28;25067;-70
2021/09/23 07:05:29;;;;;;;89.72;57.67;;;14.80;99.90;;;;;;5042900;28;25140;-69
2021/09/23 07:07:55;;;;;;;80.32;54.25;;;14.80;99.90;;;;;;5038369;28;25074;-70
2021/09/23 07:10:20;;;;;;;76.40;53.30;;;14.90;99.90;;;;;;5042447;28;25121;-71
2021/09/23 07:12:46;;;;;;;78.05;52.00;;;15.00;99.90;;;;;;5037541;28;25135;-71
2021/09/23 07:15:12;;;;;;;79.10;52.78;;;15.00;99.90;;;;;;5041928;28;25060;-70
2021/09/23 07:17:38;;;;;;;79.97;54.03;;;15.10;99.90;;;;;;5033883;28;25044;-70
2021/09/23 07:20:04;;;;;;;75.80;51.00;;;15.10;99.90;;;;;;5036134;28;25070;-70
2021/09/23 07:22:30;;;;;;;74.88;48.72;;;15.20;99.90;;;;;;5035001;28;25073;-70
2021/09/23 07:24:56;;;;;;;69.50;49.28;;;15.30;99.90;;;;;;5030926;28;25134;-70
2021/09/23 07:27:21;;;;;;;71.28;46.97;;;15.50;99.90;;;;;;5032949;28;25059;-70
2021/09/23 07:29:47;;;;;;;79.05;48.65;;;15.50;99.90;;;;;;5036638;28;25064;-70
2021/09/23 07:32:15;;;;;;;67.32;45.53;;;15.60;99.90;;;;;;5030535;28;25086;-70
2021/09/23 07:34:41;;;;;;;61.72;45.90;;;15.70;99.90;;;;;;5035870;28;25154;-70
2021/09/23 07:37:09;;;;;;;65.90;43.97;;;15.70;99.90;;;;;;5040888;28;25121;-72
2021/09/23 07:39:35;;;;;;;58.05;42.55;;;15.70;99.90;;;;;;5032581;28;25106;-69
2021/09/23 07:42:01;;;;;;;65.13;42.15;;;15.80;99.90;;;;;;5033744;28;25077;-69
2021/09/23 07:44:27;;;;;;;62.70;41.63;;;15.80;99.90;;;;;;5031967;28;25156;-69
2021/09/23 07:46:55;;;;;;;60.88;40.33;;;15.90;99.90;;;;;;5028346;28;25066;-69
2021/09/23 07:49:21;;;;;;;58.47;38.90;;;15.90;99.90;;;;;;5034824;28;25048;-71
2021/09/23 07:51:47;;;;;;;55.28;36.95;;;16.00;99.90;;;;;;5039389;28;25061;-70
2021/09/23 07:54:13;;;;;;;54.42;36.13;;;16.10;99.90;;;;;;5038284;28;25113;-70
2021/09/23 07:56:40;;;;;;;49.38;34.63;;;16.20;99.90;;;;;;5037941;28;25112;-70
2021/09/23 07:59:05;;;;;;;49.75;32.70;;;16.30;99.90;;;;;;5043396;28;25071;-70
2021/09/23 08:01:32;;;;;;;42.15;30.63;;;16.30;99.90;;;;;;5030023;28;25098;-70
2021/09/23 08:03:57;;;;;;;44.10;30.63;;;16.40;99.90;;;;;;5036629;28;25111;-68
2021/09/23 08:06:23;;;;;;;43.28;30.00;;;16.40;99.90;;;;;;5018925;28;25102;-71
2021/09/23 08:08:49;;;;;;;43.10;29.92;;;16.60;99.90;;;;;;5031322;28;25059;-70
2021/09/23 08:11:15;;;;;;;36.80;25.95;;;16.60;99.90;;;;;;5016991;28;25064;-69
2021/09/23 08:13:41;;;;;;;37.30;25.30;;;16.60;99.90;;;;;;5035813;28;25056;-70
2021/09/23 08:16:06;;;;;;;34.28;24.25;;;16.70;99.90;;;;;;5041598;28;25050;-68
2021/09/23 08:18:32;;;;;;;34.10;24.15;;;16.80;99.90;;;;;;5013061;28;25063;-69
2021/09/23 08:20:58;;;;;;;30.83;23.40;;;16.90;99.90;;;;;;5030689;28;25498;-68
2021/09/23 08:23:24;;;;;;;31.00;21.17;;;17.10;99.90;;;;;;5032591;28;25061;-70
2021/09/23 08:25:52;;;;;;;23.90;20.15;;;17.40;99.90;;;;;;5034904;28;25066;-68
2021/09/23 08:28:19;;;;;;;27.67;17.50;;;17.50;99.90;;;;;;5010445;28;25054;-69
2021/09/23 08:30:46;;;;;;;27.15;16.15;;;17.60;99.90;;;;;;5030471;28;25074;-70
2021/09/23 08:33:12;;;;;;;26.02;16.45;;;17.90;99.90;;;;;;5031101;28;25076;-71
2021/09/23 08:35:37;;;;;;;25.80;16.85;;;17.70;99.90;;;;;;5028171;28;25092;-70
2021/09/23 08:38:03;;;;;;;20.55;16.30;;;17.70;99.90;;;;;;5035934;28;25107;-68
2021/09/23 08:40:28;;;;;;;24.83;18.33;;;17.60;99.90;;;;;;5042560;28;25118;-70
2021/09/23 08:42:54;;;;;;;24.25;16.27;;;17.50;99.90;;;;;;5041783;28;25068;-69
2021/09/23 08:45:21;;;;;;;29.50;17.10;;;17.60;99.90;;;;;;5051929;28;24955;-68
2021/09/23 08:47:47;;;;;;;28.27;17.92;;;17.60;99.90;;;;;;5039216;28;25057;-65
2021/09/23 08:50:14;;;;;;;29.33;19.05;;;17.60;99.90;;;;;;5030282;28;25060;-69
2021/09/23 08:52:42;;;;;;;34.13;19.73;;;17.40;99.90;;;;;;5037753;28;25070;-68
2021/09/23 08:55:28;;;;;;;28.05;19.83;;;17.40;99.90;;;;;;5039278;28;25125;-68
2021/09/23 08:57:55;;;;;;;26.45;19.25;;;17.40;99.90;;;;;;5044989;28;25081;-69
2021/09/23 09:00:21;;;;;;;28.20;20.05;;;17.40;99.90;;;;;;5046672;28;25065;-68
2021/09/23 09:03:06;;;;;;;32.47;19.42;;;17.20;99.90;;;;;;5040703;28;25078;-69
2021/09/23 09:05:33;;;;;;;30.80;20.52;;;17.20;99.90;;;;;;5027287;28;25066;-69
2021/09/23 09:08:06;;;;;;;28.70;18.88;;;17.20;99.90;;;;;;5033098;28;25086;-67
2021/09/23 09:10:34;;;;;;;27.73;18.17;;;17.40;99.90;;;;;;5029031;28;25070;-70
2021/09/23 09:13:05;;;;;;;27.58;17.35;;;17.50;99.90;;;;;;5028023;28;25049;-69
2021/09/23 09:15:34;;;;;;;26.67;16.70;;;17.50;99.90;;;;;;5029256;28;25066;-69
2021/09/23 09:18:17;;;;;;;23.60;15.07;;;17.50;99.90;;;;;;5038605;28;25146;-69
2021/09/23 09:21:02;;;;;;;25.45;14.48;;;17.40;99.90;;;;;;5019507;28;25125;-69
2021/09/23 09:23:49;;;;;;;16.77;11.35;;;17.40;99.90;;;;;;5039915;28;25108;-69
2021/09/23 09:26:39;;;;;;;19.70;9.90;;;17.50;99.90;;;;;;5031122;28;25084;-69
2021/09/23 09:29:08;;;;;;;22.67;9.57;;;17.60;99.90;;;;;;5041324;28;25114;-68
2021/09/23 09:31:35;;;;;;;15.50;6.55;;;17.60;99.90;;;;;;5036217;28;25081;-69
2021/09/23 09:34:03;;;;;;;14.70;6.97;;;17.60;99.90;;;;;;5036231;28;25088;-70
2021/09/23 09:36:32;;;;;;;13.73;4.85;;;17.70;99.90;;;;;;5033399;28;25060;-69
2021/09/23 09:39:07;;;;;;;8.65;4.50;;;17.90;99.90;;;;;;5033087;28;25071;-68
2021/09/23 09:41:36;;;;;;;14.43;4.60;;;18.10;99.90;;;;;;5034119;28;25111;-69
2021/09/23 09:44:08;;;;;;;21.17;5.28;;;18.30;99.90;;;;;;5034142;28;25083;-72
2021/09/23 09:46:38;;;;;;;9.77;4.55;;;18.40;99.90;;;;;;5032356;28;25158;-73
2021/09/23 09:49:04;;;;;;;13.73;4.68;;;18.20;99.90;;;;;;5029512;28;25105;-69
2021/09/23 09:51:38;;;;;;;10.38;4.28;;;18.20;99.90;;;;;;5046824;28;25102;-70
2021/09/23 09:54:07;;;;;;;21.75;4.90;;;18.30;99.90;;;;;;5035317;28;25057;-69
2021/09/23 09:56:33;;;;;;;11.07;4.80;;;18.40;99.90;;;;;;5040206;28;25051;-69
2021/09/23 09:59:19;;;;;;;8.73;4.30;;;18.30;99.90;;;;;;5042930;28;25126;-69
2021/09/23 10:01:54;;;;;;;14.65;5.70;;;18.40;99.90;;;;;;5033100;28;25105;-67
2021/09/23 10:04:21;;;;;;;14.68;5.25;;;18.30;99.90;;;;;;5043329;28;25087;-70
2021/09/23 10:06:48;;;;;;;11.30;4.70;;;18.20;99.90;;;;;;5034486;28;25070;-68
2021/09/23 10:09:15;;;;;;;13.77;5.78;;;18.20;99.90;;;;;;5032859;28;25137;-70
2021/09/23 10:11:46;;;;;;;15.50;5.68;;;18.20;99.90;;;;;;5031215;28;25108;-70
2021/09/23 10:14:14;;;;;;;11.52;4.47;;;18.10;99.90;;;;;;5029218;28;25433;-70
2021/09/23 10:16:40;;;;;;;12.02;4.85;;;18.00;99.90;;;;;;5037528;28;25046;-68
2021/09/23 10:19:07;;;;;;;11.95;4.60;;;17.90;99.90;;;;;;5031542;28;25131;-68
2021/09/23 10:21:33;;;;;;;14.00;4.55;;;17.90;99.90;;;;;;5039927;28;25061;-68
2021/09/23 10:24:02;;;;;;;11.55;4.65;;;17.90;99.90;;;;;;5016856;28;25078;-69
2021/09/23 10:26:30;;;;;;;13.95;4.90;;;17.90;99.90;;;;;;5041495;28;25091;-70
2021/09/23 10:28:59;;;;;;;11.45;4.13;;;17.80;99.90;;;;;;5059873;28;25067;-72
2021/09/23 10:31:34;;;;;;;11.75;4.13;;;17.80;99.90;;;;;;5050764;28;25095;-70
2021/09/23 10:34:02;;;;;;;15.82;4.90;;;17.90;99.90;;;;;;5042216;28;25089;-71
2021/09/23 10:36:33;;;;;;;10.85;5.35;;;17.70;99.90;;;;;;5043370;28;25095;-70
2021/09/23 10:39:00;;;;;;;11.15;4.30;;;17.60;99.90;;;;;;5034784;28;25060;-72
2021/09/23 10:41:28;;;;;;;14.95;4.85;;;17.50;99.90;;;;;;5034291;28;25185;-67
2021/09/23 10:43:57;;;;;;;8.63;4.57;;;17.60;99.90;;;;;;5033205;28;25109;-66
2021/09/23 10:46:26;;;;;;;7.97;4.32;;;17.60;99.90;;;;;;5031426;28;25115;-70
2021/09/23 10:48:54;;;;;;;12.35;4.53;;;17.60;99.90;;;;;;5033483;28;25087;-70
2021/09/23 10:51:20;;;;;;;14.38;4.28;;;17.70;99.90;;;;;;5036667;28;25148;-70
2021/09/23 10:53:55;;;;;;;9.90;4.28;;;17.70;99.90;;;;;;5032628;28;25067;-70
2021/09/23 10:56:22;;;;;;;13.77;4.13;;;17.90;99.90;;;;;;5037746;28;25060;-68
2021/09/23 10:58:48;;;;;;;9.50;3.72;;;18.30;99.90;;;;;;5032251;28;25098;-72
2021/09/23 11:01:29;;;;;;;5.90;3.33;;;18.50;99.90;;;;;;5039200;28;25153;-69
2021/09/23 11:03:57;;;;;;;9.60;3.63;;;18.90;99.90;;;;;;5035370;28;25121;-71
2021/09/23 11:06:35;;;;;;;14.00;4.35;;;19.10;99.90;;;;;;5043470;28;25071;-69
2021/09/23 11:09:19;;;;;;;12.48;3.42;;;19.10;99.90;;;;;;5031377;28;25069;-66
2021/09/23 11:11:53;;;;;;;6.35;2.90;;;19.20;99.90;;;;;;5033451;28;25087;-68
2021/09/23 11:14:19;;;;;;;7.78;3.20;;;19.20;99.90;;;;;;5032183;28;25109;-70
2021/09/23 11:16:50;;;;;;;11.40;3.10;;;19.30;99.90;;;;;;5032298;28;25077;-70
2021/09/23 11:19:18;;;;;;;8.65;3.50;;;19.40;99.90;;;;;;5032555;28;25090;-69
2021/09/23 11:21:45;;;;;;;6.88;2.83;;;19.40;99.90;;;;;;5039719;28;25114;-70
2021/09/23 11:24:11;;;;;;;6.35;2.88;;;19.50;99.90;;;;;;5039497;28;25068;-68
2021/09/23 11:26:37;;;;;;;7.85;3.13;;;19.70;99.90;;;;;;5026679;28;25056;-71
2021/09/23 11:29:03;;;;;;;4.20;2.35;;;19.80;99.90;;;;;;5040493;28;25070;-67
2021/09/23 11:31:49;;;;;;;10.32;2.78;;;19.70;99.90;;;;;;5034472;28;25083;-68
2021/09/23 11:34:32;;;;;;;8.88;2.30;;;19.80;99.90;;;;;;5030789;28;25148;-70
2021/09/23 11:36:58;;;;;;;4.80;2.58;;;19.90;99.90;;;;;;5033955;28;25082;-68
2021/09/23 11:39:25;;;;;;;4.85;2.10;;;19.70;99.90;;;;;;5033310;28;25100;-67
2021/09/23 11:42:14;;;;;;;5.60;2.10;;;20.00;99.90;;;;;;5038381;28;25109;-68
2021/09/23 11:44:41;;;;;;;9.25;2.72;;;20.50;99.90;;;;;;5033600;28;25166;-68
2021/09/23 11:47:14;;;;;;;7.97;2.42;;;20.70;99.90;;;;;;5014907;28;25060;-70
2021/09/23 11:49:40;;;;;;;7.32;2.38;;;20.80;99.90;;;;;;5034995;28;25118;-68
2021/09/23 11:52:06;;;;;;;7.15;2.30;;;21.10;99.90;;;;;;5028183;28;25061;-67
2021/09/23 11:54:32;;;;;;;8.10;1.88;;;21.30;99.90;;;;;;5035268;28;25077;-69
2021/09/23 11:56:57;;;;;;;4.85;1.83;;;21.30;99.90;;;;;;5030021;28;25047;-69
2021/09/23 11:59:24;;;;;;;7.60;2.58;;;21.20;99.90;;;;;;5040717;28;25067;-68
2021/09/23 12:02:01;;;;;;;5.15;2.00;;;20.90;99.90;;;;;;5026676;28;25061;-69
2021/09/23 12:04:26;;;;;;;10.80;2.40;;;21.10;99.90;;;;;;5031987;28;25093;-66
2021/09/23 12:07:06;;;;;;;7.85;2.60;;;21.30;99.90;;;;;;5037093;28;25102;-71
2021/09/23 12:09:37;;;;;;;10.45;2.53;;;21.10;99.90;;;;;;5022475;28;25069;-66
2021/09/23 12:12:03;;;;;;;7.38;2.53;;;20.80;99.90;;;;;;5038065;28;25076;-67
2021/09/23 12:14:28;;;;;;;13.90;3.28;;;20.40;99.90;;;;;;5032839;28;25063;-66
2021/09/23 12:17:07;;;;;;;11.05;2.72;;;19.90;99.90;;;;;;5036717;28;25060;-66
2021/09/23 12:19:33;;;;;;;7.35;2.47;;;19.80;99.90;;;;;;5033738;28;25088;-67
2021/09/23 12:22:00;;;;;;;5.10;2.42;;;19.80;99.90;;;;;;5021515;28;25053;-67
2021/09/23 12:24:40;;;;;;;8.60;2.38;;;19.70;99.90;;;;;;5043797;28;25079;-66
2021/09/23 12:27:06;;;;;;;7.80;2.92;;;19.80;99.90;;;;;;5031422;28;25170;-69
2021/09/23 12:29:32;;;;;;;10.10;2.90;;;19.60;99.90;;;;;;5030891;28;25134;-66
2021/09/23 12:32:10;;;;;;;7.80;2.95;;;19.60;99.90;;;;;;5027390;28;25128;-69
2021/09/23 12:34:47;;;;;;;12.07;3.05;;;19.40;99.90;;;;;;5033770;28;25050;-66